Time,TemperatureF,DewpointF,PressureIn,WindDirection,WindDirectionDegrees,WindSpeedMPH,WindSpeedGustMPH,Humidity,HourlyPrecipIn,Conditions,Clouds,dailyrainin,SoftwareType,DateUTC
2013-03-28 00:02:00,42.0,31.0,29.90,NNW,330,11.0,11.0,62,-99.99,,,-99.99,,2013-03-28 04:02:00,
2013-03-28 00:12:00,42.0,31.0,29.90,NNW,330,11.0,11.0,62,-99.99,,,-99.99,,2013-03-28 04:12:00,
2013-03-28 00:22:00,42.0,30.0,29.90,NNW,330,11.0,16.0,62,-99.99,,,-99.99,,2013-03-28 04:22:00,
2013-03-28 00:32:00,42.0,30.0,29.90,NNW,330,11.0,16.0,62,-99.99,,,-99.99,,2013-03-28 04:32:00,
2013-03-28 00:42:00,42.0,30.0,29.90,NW,320,11.0,16.0,61,-99.99,,,-99.99,,2013-03-28 04:42:00,
2013-03-28 00:52:00,43.0,30.0,29.90,NW,310,11.0,13.0,60,-99.99,,,-99.99,,2013-03-28 04:52:00,
2013-03-28 01:02:00,43.0,30.0,29.90,NW,310,11.0,13.0,60,-99.99,,,-99.99,,2013-03-28 05:02:00,
2013-03-28 01:11:00,42.0,30.0,29.90,NW,310,13.0,18.0,61,-99.99,,,-99.99,,2013-03-28 05:11:00,
2013-03-28 01:21:00,42.0,30.0,29.90,NW,310,11.0,16.0,61,-99.99,,,-99.99,,2013-03-28 05:21:00,
2013-03-28 01:31:00,42.0,30.0,29.90,NW,310,11.0,16.0,61,-99.99,,,-99.99,,2013-03-28 05:31:00,
2013-03-28 01:42:00,42.0,30.0,29.90,NW,310,13.0,16.0,62,-99.99,,,-99.99,,2013-03-28 05:42:00,
2013-03-28 02:01:00,42.0,31.0,29.90,WNW,300,11.0,18.0,63,-99.99,,,-99.99,,2013-03-28 06:01:00,
2013-03-28 02:11:00,42.0,31.0,29.90,WNW,300,11.0,18.0,63,-99.99,,,-99.99,,2013-03-28 06:11:00,
2013-03-28 02:21:00,42.0,30.0,29.91,NW,320,16.0,22.0,62,-99.99,,,-99.99,,2013-03-28 06:21:00,
2013-03-28 02:31:00,42.0,30.0,29.91,NW,320,16.0,22.0,62,-99.99,,,-99.99,,2013-03-28 06:31:00,
2013-03-28 02:41:00,42.0,30.0,29.91,NW,310,16.0,20.0,63,-99.99,,,-99.99,,2013-03-28 06:41:00,
2013-03-28 02:51:00,42.0,30.0,29.91,NW,310,18.0,22.0,63,-99.99,,,-99.99,,2013-03-28 06:51:00,
2013-03-28 03:01:00,41.0,30.0,29.91,NW,320,18.0,22.0,64,-99.99,,,-99.99,,2013-03-28 07:01:00,
2013-03-28 03:11:00,41.0,30.0,29.91,NW,320,18.0,22.0,64,-99.99,,,-99.99,,2013-03-28 07:11:00,
2013-03-28 03:31:00,41.0,30.0,29.91,NW,320,16.0,22.0,64,-99.99,,,-99.99,,2013-03-28 07:31:00,
2013-03-28 03:42:00,41.0,30.0,29.91,NW,310,16.0,20.0,65,-99.99,,,-99.99,,2013-03-28 07:42:00,
2013-03-28 03:51:00,41.0,31.0,29.91,NW,310,13.0,20.0,66,-99.99,,,-99.99,,2013-03-28 07:51:00,
2013-03-28 04:02:00,40.0,31.0,29.90,NW,320,13.0,18.0,68,-99.99,,,-99.99,,2013-03-28 08:02:00,
2013-03-28 04:21:00,40.0,31.0,29.91,NW,320,13.0,18.0,67,-99.99,,,-99.99,,2013-03-28 08:21:00,
2013-03-28 04:31:00,40.0,31.0,29.91,NW,320,13.0,18.0,67,-99.99,,,-99.99,,2013-03-28 08:31:00,
2013-03-28 04:41:00,40.0,31.0,29.91,NW,310,13.0,18.0,68,-99.99,,,-99.99,,2013-03-28 08:41:00,
2013-03-28 04:52:00,40.0,31.0,29.91,NW,310,13.0,16.0,69,-99.99,,,-99.99,,2013-03-28 08:52:00,
2013-03-28 05:01:00,40.0,31.0,29.91,NW,310,13.0,16.0,69,-99.99,,,-99.99,,2013-03-28 09:01:00,
2013-03-28 05:32:00,40.0,31.0,29.91,NW,310,11.0,16.0,70,-99.99,,,-99.99,,2013-03-28 09:32:00,
2013-03-28 05:42:00,40.0,31.0,29.91,WNW,300,11.0,13.0,70,-99.99,,,-99.99,,2013-03-28 09:42:00,
2013-03-28 05:52:00,40.0,31.0,29.91,WNW,300,11.0,16.0,71,-99.99,,,-99.99,,2013-03-28 09:52:00,
2013-03-28 06:02:00,40.0,31.0,29.91,WNW,300,11.0,16.0,71,-99.99,,,-99.99,,2013-03-28 10:02:00,
2013-03-28 06:12:00,40.0,31.0,29.92,WNW,300,11.0,13.0,71,-99.99,,,-99.99,,2013-03-28 10:12:00,
2013-03-28 06:22:00,39.0,31.0,29.92,WNW,300,11.0,16.0,72,-99.99,,,-99.99,,2013-03-28 10:22:00,
2013-03-28 06:32:00,39.0,31.0,29.92,WNW,300,11.0,16.0,72,-99.99,,,-99.99,,2013-03-28 10:32:00,
2013-03-28 06:41:00,39.0,31.0,29.92,NW,310,11.0,16.0,71,-99.99,,,-99.99,,2013-03-28 10:41:00,
2013-03-28 06:52:00,39.0,31.0,29.93,NW,320,11.0,16.0,70,-99.99,,,-99.99,,2013-03-28 10:52:00,
2013-03-28 07:02:00,40.0,31.0,29.93,NW,320,11.0,16.0,69,-99.99,,,-99.99,,2013-03-28 11:02:00,
2013-03-28 07:11:00,40.0,31.0,29.93,NW,320,11.0,16.0,69,-99.99,,,-99.99,,2013-03-28 11:11:00,
2013-03-28 07:21:00,40.0,31.0,29.94,NW,320,11.0,13.0,70,-99.99,,,-99.99,,2013-03-28 11:21:00,
2013-03-28 07:32:00,40.0,31.0,29.94,NW,320,11.0,13.0,70,-99.99,,,-99.99,,2013-03-28 11:32:00,
2013-03-28 07:42:00,40.0,31.0,29.94,NW,320,9.0,11.0,70,-99.99,,,-99.99,,2013-03-28 11:42:00,
2013-03-28 07:52:00,40.0,31.0,29.94,NNW,330,9.0,13.0,71,-99.99,,,-99.99,,2013-03-28 11:52:00,
2013-03-28 08:01:00,40.0,31.0,29.94,NNW,330,9.0,13.0,71,-99.99,,,-99.99,,2013-03-28 12:01:00,
2013-03-28 08:11:00,40.0,31.0,29.95,NNW,340,11.0,16.0,71,-99.99,,,-99.99,,2013-03-28 12:11:00,
2013-03-28 08:21:00,40.0,32.0,29.95,NNW,340,13.0,18.0,72,-99.99,,,-99.99,,2013-03-28 12:21:00,
2013-03-28 08:31:00,40.0,32.0,29.95,NNW,340,13.0,18.0,72,-99.99,,,-99.99,,2013-03-28 12:31:00,
2013-03-28 08:41:00,40.0,32.0,29.96,NNW,340,13.0,18.0,73,-99.99,,,-99.99,,2013-03-28 12:41:00,
2013-03-28 08:51:00,40.0,32.0,29.96,NNW,340,11.0,16.0,73,-99.99,,,-99.99,,2013-03-28 12:51:00,
2013-03-28 09:01:00,40.0,32.0,29.96,NNW,340,11.0,16.0,72,-99.99,,,-99.99,,2013-03-28 13:01:00,
2013-03-28 09:11:00,40.0,32.0,29.96,NNW,340,11.0,16.0,72,-99.99,,,-99.99,,2013-03-28 13:11:00,
2013-03-28 09:21:00,41.0,33.0,29.96,North,350,11.0,18.0,72,-99.99,,,-99.99,,2013-03-28 13:21:00,
2013-03-28 09:41:00,42.0,33.0,29.96,North,350,11.0,16.0,72,-99.99,,,-99.99,,2013-03-28 13:41:00,
2013-03-28 09:51:00,42.0,34.0,29.96,North,350,11.0,16.0,72,-99.99,,,-99.99,,2013-03-28 13:51:00,
2013-03-28 10:01:00,42.0,34.0,29.96,North,350,11.0,16.0,72,-99.99,,,-99.99,,2013-03-28 14:01:00,
2013-03-28 10:11:00,43.0,34.0,29.96,North,360,9.0,13.0,71,-99.99,,,-99.99,,2013-03-28 14:11:00,
2013-03-28 10:31:00,44.0,34.0,29.96,North,360,11.0,13.0,69,-99.99,,,-99.99,,2013-03-28 14:31:00,
2013-03-28 10:42:00,43.0,34.0,29.96,North,360,11.0,13.0,69,-99.99,,,-99.99,,2013-03-28 14:42:00,
2013-03-28 10:51:00,44.0,33.0,29.96,North,360,13.0,16.0,66,-99.99,,,-99.99,,2013-03-28 14:51:00,
2013-03-28 11:01:00,44.0,33.0,29.96,North,360,13.0,16.0,66,-99.99,,,-99.99,,2013-03-28 15:01:00,
2013-03-28 11:21:00,44.0,33.0,29.97,North,360,13.0,18.0,66,-99.99,,,-99.99,,2013-03-28 15:21:00,
2013-03-28 11:32:00,44.0,33.0,29.97,North,360,13.0,18.0,66,-99.99,,,-99.99,,2013-03-28 15:32:00,
2013-03-28 11:42:00,43.0,33.0,29.97,North,360,11.0,16.0,65,-99.99,,,-99.99,,2013-03-28 15:42:00,
2013-03-28 11:52:00,43.0,33.0,29.97,North,350,13.0,18.0,67,-99.99,,,-99.99,,2013-03-28 15:52:00,
2013-03-28 12:02:00,43.0,33.0,29.97,North,350,11.0,16.0,67,-99.99,,,-99.99,,2013-03-28 16:02:00,
2013-03-28 12:12:00,43.0,33.0,29.97,North,350,11.0,16.0,67,-99.99,,,-99.99,,2013-03-28 16:12:00,
2013-03-28 12:22:00,43.0,33.0,29.97,North,350,11.0,16.0,68,-99.99,,,-99.99,,2013-03-28 16:22:00,
2013-03-28 12:41:00,43.0,33.0,29.98,North,10,9.0,13.0,68,-99.99,,,-99.99,,2013-03-28 16:41:00,
2013-03-28 12:51:00,43.0,34.0,29.97,North,350,9.0,11.0,69,-99.99,,,-99.99,,2013-03-28 16:51:00,
2013-03-28 13:02:00,43.0,34.0,29.97,North,350,9.0,11.0,69,-99.99,,,-99.99,,2013-03-28 17:02:00,
2013-03-28 13:12:00,44.0,33.0,29.97,NNW,340,9.0,13.0,64,-99.99,,,-99.99,,2013-03-28 17:12:00,
2013-03-28 13:21:00,44.0,33.0,29.97,NNW,340,7.0,11.0,64,-99.99,,,-99.99,,2013-03-28 17:21:00,
2013-03-28 13:31:00,44.0,33.0,29.97,NNW,340,7.0,11.0,64,-99.99,,,-99.99,,2013-03-28 17:31:00,
2013-03-28 13:41:00,44.0,33.0,29.97,North,350,7.0,11.0,66,-99.99,,,-99.99,,2013-03-28 17:41:00,
2013-03-28 13:52:00,45.0,33.0,29.97,East,80,2.0,11.0,62,-99.99,,,-99.99,,2013-03-28 17:52:00,
2013-03-28 14:01:00,45.0,33.0,29.97,North,0,0.0,2.0,62,-99.99,,,-99.99,,2013-03-28 18:01:00,
2013-03-28 14:21:00,45.0,33.0,29.97,ESE,120,4.0,9.0,62,-99.99,,,-99.99,,2013-03-28 18:21:00,
2013-03-28 14:31:00,44.0,35.0,29.98,SSE,150,7.0,9.0,70,-99.99,,,-99.99,,2013-03-28 18:31:00,
2013-03-28 14:41:00,44.0,35.0,29.98,SSE,150,7.0,9.0,70,-99.99,,,-99.99,,2013-03-28 18:41:00,
2013-03-28 14:52:00,43.0,35.0,29.98,SSE,160,7.0,9.0,71,-99.99,,,-99.99,,2013-03-28 18:52:00,
2013-03-28 15:01:00,43.0,35.0,29.98,SSE,160,7.0,9.0,71,-99.99,,,-99.99,,2013-03-28 19:01:00,
2013-03-28 15:11:00,43.0,35.0,29.98,SSE,160,7.0,9.0,74,-99.99,,,-99.99,,2013-03-28 19:11:00,
2013-03-28 15:31:00,42.0,35.0,29.98,South,190,7.0,11.0,77,-99.99,,,-99.99,,2013-03-28 19:31:00,
2013-03-28 15:42:00,42.0,35.0,29.98,SSW,200,7.0,11.0,76,-99.99,,,-99.99,,2013-03-28 19:42:00,
2013-03-28 15:52:00,42.0,36.0,29.98,SSW,210,9.0,9.0,79,-99.99,,,-99.99,,2013-03-28 19:52:00,
2013-03-28 16:01:00,42.0,36.0,29.98,SSW,210,9.0,9.0,79,-99.99,,,-99.99,,2013-03-28 20:01:00,
2013-03-28 16:21:00,41.0,36.0,29.98,SSW,210,7.0,9.0,81,-99.99,,,-99.99,,2013-03-28 20:21:00,
2013-03-28 16:32:00,41.0,36.0,29.98,SSW,210,7.0,9.0,81,-99.99,,,-99.99,,2013-03-28 20:32:00,
2013-03-28 16:42:00,41.0,37.0,29.98,SW,230,9.0,11.0,84,-99.99,,,-99.99,,2013-03-28 20:42:00,
2013-03-28 16:52:00,41.0,37.0,29.98,SW,230,9.0,11.0,85,-99.99,,,-99.99,,2013-03-28 20:52:00,
2013-03-28 17:01:00,41.0,37.0,29.98,SW,230,9.0,11.0,85,-99.99,,,-99.99,,2013-03-28 21:01:00,
2013-03-28 17:11:00,41.0,36.0,29.98,SW,230,9.0,13.0,83,-99.99,,,-99.99,,2013-03-28 21:11:00,
2013-03-28 17:21:00,41.0,36.0,29.98,WSW,240,11.0,13.0,82,-99.99,,,-99.99,,2013-03-28 21:21:00,
2013-03-28 17:32:00,41.0,36.0,29.98,WSW,240,11.0,13.0,82,-99.99,,,-99.99,,2013-03-28 21:32:00,
2013-03-28 17:42:00,41.0,36.0,29.98,WSW,240,11.0,16.0,82,-99.99,,,-99.99,,2013-03-28 21:42:00,
2013-03-28 17:52:00,41.0,36.0,29.99,WSW,250,13.0,16.0,83,-99.99,,,-99.99,,2013-03-28 21:52:00,
2013-03-28 18:02:00,41.0,36.0,29.99,WSW,240,13.0,16.0,81,-99.99,,,-99.99,,2013-03-28 22:02:00,
2013-03-28 18:12:00,41.0,36.0,29.99,WSW,240,13.0,16.0,81,-99.99,,,-99.99,,2013-03-28 22:12:00,
2013-03-28 18:22:00,41.0,36.0,30.00,WSW,240,13.0,16.0,83,-99.99,,,-99.99,,2013-03-28 22:22:00,
2013-03-28 18:32:00,41.0,36.0,30.00,WSW,240,13.0,16.0,83,-99.99,,,-99.99,,2013-03-28 22:32:00,
2013-03-28 18:41:00,41.0,36.0,30.00,WSW,250,13.0,16.0,84,-99.99,,,-99.99,,2013-03-28 22:41:00,
2013-03-28 18:52:00,41.0,37.0,30.01,WSW,250,9.0,13.0,85,-99.99,,,-99.99,,2013-03-28 22:52:00,
2013-03-28 19:01:00,41.0,37.0,30.01,WSW,250,9.0,13.0,85,-99.99,,,-99.99,,2013-03-28 23:01:00,
2013-03-28 19:11:00,41.0,37.0,30.00,WSW,250,9.0,9.0,86,-99.99,,,-99.99,,2013-03-28 23:11:00,
2013-03-28 19:21:00,40.0,37.0,30.01,WSW,250,7.0,9.0,87,-99.99,,,-99.99,,2013-03-28 23:21:00,
2013-03-28 19:31:00,40.0,37.0,30.01,WSW,250,7.0,9.0,87,-99.99,,,-99.99,,2013-03-28 23:31:00,
2013-03-28 19:42:00,40.0,37.0,30.01,West,260,7.0,9.0,87,-99.99,,,-99.99,,2013-03-28 23:42:00,
2013-03-28 19:52:00,40.0,37.0,30.01,West,260,7.0,9.0,88,-99.99,,,-99.99,,2013-03-28 23:52:00,
2013-03-28 20:01:00,40.0,37.0,30.02,West,270,7.0,9.0,88,-99.99,,,-99.99,,2013-03-29 00:01:00,
2013-03-28 20:11:00,40.0,37.0,30.02,West,270,7.0,9.0,88,-99.99,,,-99.99,,2013-03-29 00:11:00,
2013-03-28 20:21:00,40.0,38.0,30.02,West,280,7.0,9.0,89,-99.99,,,-99.99,,2013-03-29 00:21:00,
2013-03-28 20:31:00,40.0,38.0,30.02,West,280,7.0,9.0,89,-99.99,,,-99.99,,2013-03-29 00:31:00,
2013-03-28 20:42:00,40.0,38.0,30.03,WNW,300,4.0,7.0,90,-99.99,,,-99.99,,2013-03-29 00:42:00,
2013-03-28 20:51:00,41.0,38.0,30.03,WNW,290,2.0,4.0,89,-99.99,,,-99.99,,2013-03-29 00:51:00,
2013-03-28 21:00:00,41.0,38.0,30.05,NW,320,2.0,4.0,87,-99.99,,,-99.99,,2013-03-29 01:00:00,
2013-03-28 21:01:00,41.0,38.0,30.04,WNW,290,4.0,4.0,90,-99.99,,,-99.99,,2013-03-29 01:01:00,
2013-03-28 21:11:00,41.0,38.0,30.04,WNW,290,4.0,4.0,90,-99.99,,,-99.99,,2013-03-29 01:11:00,
2013-03-28 21:21:00,41.0,38.0,30.04,NW,310,4.0,4.0,89,-99.99,,,-99.99,,2013-03-29 01:21:00,
2013-03-28 21:31:00,41.0,38.0,30.04,NW,310,4.0,4.0,89,-99.99,,,-99.99,,2013-03-29 01:31:00,
2013-03-28 21:41:00,41.0,38.0,30.05,NW,320,2.0,4.0,87,-99.99,,,-99.99,,2013-03-29 01:41:00,
2013-03-28 21:52:00,41.0,38.0,30.05,NW,320,2.0,4.0,87,-99.99,,,-99.99,,2013-03-29 01:52:00,